Time;durP1;ratioP1;P1;durP2;ratioP2;P2;SDS_P1;SDS_P2;PMS_P1;PMS_P2;Temp;Humidity;BMP_temperature;BMP_pressure;BME280_temperature;BME280_humidity;BME280_pressure;Samples;Min_cycle;Max_cycle;Signal;HPM_P1;HPM_P2
2020/12/09 00:00:12;;;;;;;64.15;25.92;;;3.80;99.90;;;;;;5064108;28;20862;-51
2020/12/09 00:02:39;;;;;;;59.88;25.45;;;3.80;99.90;;;;;;5067292;28;20406;-50
2020/12/09 00:05:07;;;;;;;66.50;25.63;;;3.90;99.90;;;;;;5066154;28;20390;-49
2020/12/09 00:07:34;;;;;;;53.22;21.50;;;3.90;99.90;;;;;;5062873;28;20213;-49
2020/12/09 00:10:01;;;;;;;58.75;21.92;;;3.90;99.90;;;;;;5064531;28;20178;-49
2020/12/09 00:12:30;;;;;;;52.85;19.75;;;3.90;99.90;;;;;;5064810;28;20685;-49
2020/12/09 00:15:00;;;;;;;61.58;22.25;;;3.90;99.90;;;;;;5064966;28;20174;-49
2020/12/09 00:17:28;;;;;;;57.78;20.50;;;3.90;99.90;;;;;;5066669;28;20190;-50
2020/12/09 00:19:54;;;;;;;54.70;20.70;;;3.90;99.90;;;;;;5066643;28;20954;-50
2020/12/09 00:22:23;;;;;;;47.67;20.52;;;3.90;99.90;;;;;;5065896;28;20181;-49
2020/12/09 00:24:51;;;;;;;60.78;20.83;;;3.90;99.90;;;;;;5063907;28;20182;-50
2020/12/09 00:27:17;;;;;;;53.15;20.65;;;3.90;99.90;;;;;;5066035;28;20538;-51
2020/12/09 00:29:43;;;;;;;56.75;20.77;;;3.90;99.90;;;;;;5067126;28;20484;-51
2020/12/09 00:32:09;;;;;;;47.28;19.70;;;3.90;99.90;;;;;;5068267;28;20169;-49
2020/12/09 00:34:35;;;;;;;52.03;21.52;;;3.90;99.90;;;;;;5066895;28;20179;-52
2020/12/09 00:37:01;;;;;;;46.58;21.45;;;3.90;99.90;;;;;;5063317;28;20203;-49
2020/12/09 00:39:28;;;;;;;45.88;20.80;;;3.90;99.90;;;;;;5065180;28;20174;-51
2020/12/09 00:41:54;;;;;;;51.17;21.50;;;3.90;99.90;;;;;;5064594;28;20200;-49
2020/12/09 00:44:20;;;;;;;53.20;20.73;;;3.90;99.90;;;;;;5065891;28;20179;-49
2020/12/09 00:46:46;;;;;;;53.13;20.48;;;3.90;99.90;;;;;;5064995;28;20203;-50
2020/12/09 00:49:12;;;;;;;54.30;22.83;;;3.90;99.90;;;;;;5064252;28;20174;-51
2020/12/09 00:51:38;;;;;;;50.08;21.02;;;3.90;99.90;;;;;;5064475;28;20197;-49
2020/12/09 00:54:04;;;;;;;50.03;21.33;;;3.90;99.90;;;;;;5065233;28;20197;-50
2020/12/09 00:56:31;;;;;;;52.83;20.98;;;3.90;99.90;;;;;;5063521;28;20253;-49
2020/12/09 00:58:57;;;;;;;45.42;20.75;;;3.90;99.90;;;;;;5065684;28;20185;-49
2020/12/09 01:01:23;;;;;;;50.85;21.83;;;3.90;99.90;;;;;;5064843;28;20181;-50
2020/12/09 01:03:49;;;;;;;48.95;21.48;;;3.90;99.90;;;;;;5066951;28;20202;-50
2020/12/09 01:06:18;;;;;;;50.72;21.77;;;3.90;99.90;;;;;;5063040;28;20558;-49
2020/12/09 01:08:44;;;;;;;45.72;21.17;;;3.90;99.90;;;;;;5064908;28;20186;-49
2020/12/09 01:11:10;;;;;;;44.58;20.48;;;3.90;99.90;;;;;;5065134;28;20185;-49
2020/12/09 01:13:37;;;;;;;46.00;19.88;;;3.90;99.90;;;;;;5065618;28;20171;-49
2020/12/09 01:16:03;;;;;;;49.90;23.17;;;3.90;99.90;;;;;;5064547;28;20887;-49
2020/12/09 01:18:29;;;;;;;59.35;26.83;;;3.90;99.90;;;;;;5062641;28;20886;-49
2020/12/09 01:20:55;;;;;;;60.20;25.95;;;3.90;99.90;;;;;;5064195;28;20900;-49
2020/12/09 01:23:21;;;;;;;52.08;24.63;;;3.90;99.90;;;;;;5064522;28;20388;-50
2020/12/09 01:25:47;;;;;;;48.88;23.85;;;4.00;99.90;;;;;;5065046;28;20392;-49
2020/12/09 01:28:13;;;;;;;50.70;22.60;;;3.90;99.90;;;;;;5063933;28;20397;-49
2020/12/09 01:30:39;;;;;;;48.60;22.17;;;4.00;99.90;;;;;;5062989;28;20386;-50
2020/12/09 01:33:06;;;;;;;48.55;23.08;;;4.00;99.90;;;;;;5064636;28;20402;-49
2020/12/09 01:35:32;;;;;;;51.30;24.20;;;4.00;99.90;;;;;;5061153;28;20384;-50
2020/12/09 01:37:58;;;;;;;52.57;24.13;;;4.00;99.90;;;;;;5063949;28;20414;-50
2020/12/09 01:40:24;;;;;;;50.53;23.48;;;4.00;99.90;;;;;;5060993;28;20388;-49
2020/12/09 01:42:50;;;;;;;50.97;23.48;;;4.00;99.90;;;;;;5064292;28;20389;-50
2020/12/09 01:45:17;;;;;;;52.00;22.63;;;4.00;99.90;;;;;;5060598;28;20750;-48
2020/12/09 01:47:44;;;;;;;50.08;22.65;;;4.00;99.90;;;;;;5062836;28;20414;-51
2020/12/09 01:50:11;;;;;;;49.90;23.08;;;4.00;99.90;;;;;;5060902;28;20866;-49
2020/12/09 01:52:37;;;;;;;49.80;22.57;;;4.00;99.90;;;;;;5060911;28;20392;-49
2020/12/09 01:55:03;;;;;;;50.57;22.07;;;4.00;99.90;;;;;;5061839;28;20425;-50
2020/12/09 01:57:29;;;;;;;45.35;21.17;;;4.10;99.90;;;;;;5059118;28;20407;-50
2020/12/09 01:59:56;;;;;;;42.65;20.33;;;4.10;99.90;;;;;;5066082;28;20386;-49
2020/12/09 02:02:22;;;;;;;49.67;22.23;;;4.00;99.90;;;;;;5064406;28;20402;-49
2020/12/09 02:04:48;;;;;;;44.00;19.17;;;4.00;99.90;;;;;;5062736;28;20390;-49
2020/12/09 02:07:14;;;;;;;42.10;20.95;;;4.10;99.90;;;;;;5064817;28;20430;-49
2020/12/09 02:09:40;;;;;;;44.53;20.80;;;4.10;99.90;;;;;;5064330;28;20386;-51
2020/12/09 02:12:06;;;;;;;41.97;20.58;;;4.10;99.90;;;;;;5058897;28;20406;-49
2020/12/09 02:14:33;;;;;;;45.95;22.02;;;4.10;99.90;;;;;;5062055;28;20398;-54
2020/12/09 02:16:59;;;;;;;44.40;21.52;;;4.10;99.90;;;;;;5058891;28;20407;-50
2020/12/09 02:19:25;;;;;;;42.10;20.00;;;4.10;99.90;;;;;;5060832;28;20390;-49
2020/12/09 02:21:52;;;;;;;40.95;20.52;;;4.10;99.90;;;;;;5065159;28;20402;-50
2020/12/09 02:24:18;;;;;;;42.40;20.75;;;4.10;99.90;;;;;;5065126;28;20899;-49
2020/12/09 02:26:48;;;;;;;38.77;19.87;;;4.10;99.90;;;;;;5065068;28;20418;-50
2020/12/09 02:29:15;;;;;;;39.57;19.50;;;4.10;99.90;;;;;;5062932;28;20432;-49
2020/12/09 02:31:41;;;;;;;41.53;21.17;;;4.10;99.90;;;;;;5064378;28;20750;-49
2020/12/09 02:34:09;;;;;;;41.53;20.88;;;4.10;99.90;;;;;;5077465;28;20414;-49
2020/12/09 02:36:35;;;;;;;42.65;21.00;;;4.10;99.90;;;;;;5064575;28;20387;-50
2020/12/09 02:39:03;;;;;;;42.55;21.05;;;4.10;99.90;;;;;;5061955;28;20853;-49
2020/12/09 02:41:29;;;;;;;41.08;20.25;;;4.10;99.90;;;;;;5059729;28;20380;-49
2020/12/09 02:43:55;;;;;;;41.10;20.40;;;4.10;99.90;;;;;;5062703;28;20423;-49
2020/12/09 02:46:22;;;;;;;39.33;19.33;;;4.10;99.90;;;;;;5061167;28;20729;-50
2020/12/09 02:48:48;;;;;;;40.28;19.08;;;4.10;99.90;;;;;;5064575;28;20979;-50
2020/12/09 02:51:14;;;;;;;36.83;19.17;;;4.10;99.90;;;;;;5063966;28;20398;-49
2020/12/09 02:53:41;;;;;;;38.35;19.52;;;4.20;99.90;;;;;;5065995;28;20431;-50
2020/12/09 02:56:07;;;;;;;38.05;19.25;;;4.10;99.90;;;;;;5066441;28;20875;-49
2020/12/09 02:58:36;;;;;;;37.72;19.10;;;4.20;99.90;;;;;;5069724;28;21820;-49
2020/12/09 03:01:05;;;;;;;36.65;18.65;;;4.20;99.90;;;;;;5063864;28;20409;-49
2020/12/09 03:03:31;;;;;;;40.63;19.02;;;4.20;99.90;;;;;;5068232;28;20406;-49
2020/12/09 03:05:58;;;;;;;40.72;19.10;;;4.20;99.90;;;;;;5067517;28;20754;-49
2020/12/09 03:08:24;;;;;;;37.50;19.33;;;4.20;99.90;;;;;;5063666;28;20425;-50
2020/12/09 03:10:50;;;;;;;37.25;18.73;;;4.20;99.90;;;;;;5065235;28;20374;-49
2020/12/09 03:13:16;;;;;;;33.30;18.17;;;4.20;99.90;;;;;;5068707;28;20398;-50
2020/12/09 03:15:42;;;;;;;35.65;18.95;;;4.20;99.90;;;;;;5058118;28;20390;-50
2020/12/09 03:18:08;;;;;;;37.30;17.70;;;4.20;99.90;;;;;;5063898;28;20414;-49
2020/12/09 03:20:35;;;;;;;35.85;17.90;;;4.20;99.90;;;;;;5065532;28;20383;-49
2020/12/09 03:23:01;;;;;;;36.73;18.97;;;4.30;99.90;;;;;;5057341;28;20404;-49
2020/12/09 03:25:27;;;;;;;35.63;18.80;;;4.30;99.90;;;;;;5067562;28;20380;-49
2020/12/09 03:27:53;;;;;;;37.53;18.63;;;4.20;99.90;;;;;;5067992;28;20421;-49
2020/12/09 03:30:19;;;;;;;35.63;18.88;;;4.20;99.90;;;;;;5059589;28;20378;-49
2020/12/09 03:32:48;;;;;;;33.97;18.23;;;4.20;99.90;;;;;;5063554;28;20406;-49
2020/12/09 03:35:14;;;;;;;34.83;18.70;;;4.30;99.90;;;;;;5071871;28;22038;-50
2020/12/09 03:37:40;;;;;;;34.90;18.88;;;4.30;99.90;;;;;;5068333;28;20767;-49
2020/12/09 03:40:07;;;;;;;36.83;19.10;;;4.30;99.90;;;;;;5059840;28;20778;-49
2020/12/09 03:42:35;;;;;;;33.53;17.45;;;4.20;99.90;;;;;;5066353;28;20903;-49
2020/12/09 03:45:02;;;;;;;34.55;17.80;;;4.30;99.90;;;;;;5065105;28;20390;-49
2020/12/09 03:47:28;;;;;;;39.53;19.95;;;4.30;99.90;;;;;;5068358;28;20760;-49
2020/12/09 03:49:54;;;;;;;38.42;20.13;;;4.20;99.90;;;;;;5066776;28;20409;-49
2020/12/09 03:52:20;;;;;;;35.88;19.35;;;4.30;99.90;;;;;;5064344;28;20403;-48
2020/12/09 03:54:46;;;;;;;36.97;19.30;;;4.30;99.90;;;;;;5065102;28;20380;-49
2020/12/09 03:57:12;;;;;;;38.53;19.88;;;4.30;99.90;;;;;;5063646;28;20390;-49
2020/12/09 03:59:39;;;;;;;32.88;18.48;;;4.30;99.90;;;;;;5060630;28;20382;-50
2020/12/09 04:02:05;;;;;;;34.00;18.02;;;4.30;99.90;;;;;;5064064;28;20395;-49
2020/12/09 04:04:31;;;;;;;34.13;19.10;;;4.30;99.90;;;;;;5068946;28;20402;-50
2020/12/09 04:06:57;;;;;;;35.58;18.65;;;4.30;99.90;;;;;;5067866;28;20414;-49
2020/12/09 04:09:24;;;;;;;34.10;18.23;;;4.30;99.90;;;;;;5064983;28;20378;-49
2020/12/09 04:11:50;;;;;;;33.95;18.52;;;4.30;99.90;;;;;;5067672;28;20398;-49
2020/12/09 04:14:16;;;;;;;35.92;18.27;;;4.30;99.90;;;;;;5053452;28;20368;-50
2020/12/09 04:16:42;;;;;;;37.92;19.05;;;4.30;99.90;;;;;;5059137;28;20389;-50
2020/12/09 04:19:08;;;;;;;34.35;18.70;;;4.30;99.90;;;;;;5086423;28;20406;-50
2020/12/09 04:21:34;;;;;;;33.25;17.70;;;4.30;99.90;;;;;;5061856;28;20389;-49
2020/12/09 04:24:01;;;;;;;32.80;18.00;;;4.40;99.90;;;;;;5063302;28;20391;-50
2020/12/09 04:26:27;;;;;;;34.33;18.73;;;4.40;99.90;;;;;;5069064;28;20846;-49
2020/12/09 04:28:53;;;;;;;35.63;17.77;;;4.40;99.90;;;;;;5066193;28;20392;-49
2020/12/09 04:31:19;;;;;;;35.90;19.15;;;4.40;99.90;;;;;;5063278;28;20468;-49
2020/12/09 04:33:54;;;;;;;35.67;18.75;;;4.40;99.90;;;;;;5068188;28;20413;-49
2020/12/09 04:36:21;;;;;;;34.97;18.67;;;4.40;99.90;;;;;;5062636;28;20382;-49
2020/12/09 04:38:47;;;;;;;33.63;18.83;;;4.40;99.90;;;;;;5063979;28;20388;-49
2020/12/09 04:41:13;;;;;;;33.20;18.00;;;4.40;99.90;;;;;;5063858;28;20378;-51
2020/12/09 04:43:39;;;;;;;30.93;17.63;;;4.40;99.90;;;;;;5065894;28;20393;-51
2020/12/09 04:46:05;;;;;;;35.38;18.42;;;4.40;99.90;;;;;;5067700;28;20477;-49
2020/12/09 04:48:31;;;;;;;33.95;18.58;;;4.40;99.90;;;;;;5069293;28;20503;-49
2020/12/09 04:51:31;;;;;;;35.38;18.85;;;4.40;99.90;;;;;;5062267;28;20394;-50
2020/12/09 04:53:58;;;;;;;32.45;17.42;;;4.40;99.90;;;;;;5062477;28;20888;-50
2020/12/09 04:56:36;;;;;;;34.88;18.95;;;4.40;99.90;;;;;;5055469;28;20386;-49
2020/12/09 04:59:25;;;;;;;32.97;18.95;;;4.40;99.90;;;;;;5054994;28;20868;-49
2020/12/09 05:02:11;;;;;;;35.10;18.20;;;4.40;99.90;;;;;;5057734;28;20383;-50
2020/12/09 05:04:38;;;;;;;36.90;19.63;;;4.40;99.90;;;;;;5067524;28;20390;-50
2020/12/09 05:07:11;;;;;;;39.03;19.45;;;4.40;99.90;;;;;;5070368;28;20407;-50
2020/12/09 05:09:44;;;;;;;35.58;18.55;;;4.50;99.90;;;;;;5066506;28;20395;-49
2020/12/09 05:12:12;;;;;;;33.85;18.55;;;4.40;99.90;;;;;;5064721;28;20393;-49
2020/12/09 05:14:46;;;;;;;33.97;18.02;;;4.40;99.90;;;;;;5060354;28;20405;-51
2020/12/09 05:17:21;;;;;;;35.88;18.77;;;4.50;99.90;;;;;;5055105;28;20398;-49
2020/12/09 05:19:48;;;;;;;33.43;18.20;;;4.50;99.90;;;;;;5051010;28;20380;-49
2020/12/09 05:22:16;;;;;;;34.38;19.05;;;4.50;99.90;;;;;;5064663;28;20401;-53
2020/12/09 05:24:43;;;;;;;34.22;18.45;;;4.40;99.90;;;;;;5071232;28;20374;-50
2020/12/09 05:27:09;;;;;;;33.92;18.85;;;4.50;99.90;;;;;;5070276;28;21039;-51
2020/12/09 05:29:44;;;;;;;35.85;18.52;;;4.50;99.90;;;;;;5070881;28;20401;-51
2020/12/09 05:32:10;;;;;;;35.07;18.60;;;4.50;99.90;;;;;;5068652;28;20915;-52
2020/12/09 05:34:36;;;;;;;35.13;19.00;;;4.50;99.90;;;;;;5069823;28;20403;-51
2020/12/09 05:37:04;;;;;;;35.75;19.38;;;4.50;99.90;;;;;;5069688;28;20386;-52
2020/12/09 05:39:30;;;;;;;35.90;19.08;;;4.50;99.90;;;;;;5069959;28;20723;-50
2020/12/09 05:41:56;;;;;;;35.33;19.48;;;4.50;99.90;;;;;;5070466;28;20393;-50
2020/12/09 05:44:23;;;;;;;37.17;19.88;;;4.50;99.90;;;;;;5067130;28;20895;-51
2020/12/09 05:46:56;;;;;;;39.70;19.98;;;4.50;99.90;;;;;;5051462;28;20899;-50
2020/12/09 05:49:23;;;;;;;36.40;19.60;;;4.50;99.90;;;;;;5065351;28;20898;-51
2020/12/09 05:52:10;;;;;;;37.13;19.35;;;4.50;99.90;;;;;;5068956;28;20397;-50
2020/12/09 05:54:41;;;;;;;39.35;20.25;;;4.50;99.90;;;;;;5055417;28;20380;-50
2020/12/09 05:57:09;;;;;;;37.42;20.10;;;4.50;99.90;;;;;;5050880;28;20390;-51
2020/12/09 05:59:40;;;;;;;33.80;19.03;;;4.50;99.90;;;;;;5050661;28;20788;-50
2020/12/09 06:02:10;;;;;;;36.22;20.10;;;4.50;99.90;;;;;;5050678;28;20394;-51
2020/12/09 06:04:49;;;;;;;35.17;19.55;;;4.50;99.90;;;;;;5068629;28;20386;-54
2020/12/09 06:07:15;;;;;;;34.47;18.87;;;4.50;99.90;;;;;;5065402;28;20405;-51
2020/12/09 06:10:14;;;;;;;35.17;20.13;;;4.50;99.90;;;;;;5068652;28;20398;-50
2020/12/09 06:12:50;;;;;;;38.20;20.67;;;4.50;99.90;;;;;;5064962;28;20747;-52
2020/12/09 06:15:16;;;;;;;40.70;21.03;;;4.50;99.90;;;;;;5069302;28;20405;-52
2020/12/09 06:17:43;;;;;;;39.65;21.55;;;4.50;99.90;;;;;;5069950;28;20382;-52
2020/12/09 06:20:09;;;;;;;40.88;21.88;;;4.50;99.90;;;;;;5068767;28;20893;-54
2020/12/09 06:22:35;;;;;;;39.53;22.13;;;4.50;99.90;;;;;;5072158;28;20385;-50
2020/12/09 06:25:07;;;;;;;39.40;22.58;;;4.50;99.90;;;;;;5074034;28;20381;-51
2020/12/09 06:27:35;;;;;;;43.33;23.13;;;4.50;99.90;;;;;;5074500;28;20403;-51
2020/12/09 06:30:02;;;;;;;45.65;23.15;;;4.50;99.90;;;;;;5055489;28;20376;-51
2020/12/09 06:32:45;;;;;;;41.50;21.80;;;4.60;99.90;;;;;;5055809;28;20384;-51
2020/12/09 06:35:11;;;;;;;42.22;22.77;;;4.60;99.90;;;;;;5073861;28;20440;-53
2020/12/09 06:37:37;;;;;;;42.15;21.30;;;4.60;99.90;;;;;;5065008;28;20392;-50
2020/12/09 06:40:07;;;;;;;40.58;21.30;;;4.60;99.90;;;;;;5052999;28;20384;-50
2020/12/09 06:42:33;;;;;;;40.78;20.95;;;4.60;99.90;;;;;;5071368;28;20893;-51
2020/12/09 06:45:01;;;;;;;41.75;22.52;;;4.60;99.90;;;;;;5068687;28;20394;-49
2020/12/09 06:47:27;;;;;;;44.53;22.73;;;4.60;99.90;;;;;;5073069;28;20866;-50
2020/12/09 06:49:54;;;;;;;39.13;20.65;;;4.60;99.90;;;;;;5073540;28;20742;-51
2020/12/09 06:52:28;;;;;;;41.15;21.52;;;4.60;99.90;;;;;;5071916;28;20385;-51
2020/12/09 06:54:54;;;;;;;43.53;21.13;;;4.60;99.90;;;;;;5071414;28;20401;-53
2020/12/09 06:57:25;;;;;;;38.80;20.88;;;4.60;99.90;;;;;;5070169;28;20452;-54
2020/12/09 07:00:11;;;;;;;39.53;20.90;;;4.60;99.90;;;;;;5069056;28;20742;-52
2020/12/09 07:02:41;;;;;;;40.13;20.95;;;4.60;99.90;;;;;;5069012;28;20397;-51
2020/12/09 07:05:07;;;;;;;39.55;20.10;;;4.60;99.90;;;;;;5072024;28;20912;-50
2020/12/09 07:07:34;;;;;;;41.17;19.95;;;4.70;99.90;;;;;;5073173;28;20421;-52
2020/12/09 07:10:02;;;;;;;40.03;20.67;;;4.70;99.90;;;;;;5072845;28;20382;-50
2020/12/09 07:12:28;;;;;;;38.67;20.73;;;4.70;99.90;;;;;;5073186;28;20401;-51
2020/12/09 07:14:57;;;;;;;39.97;21.05;;;4.70;99.90;;;;;;5072337;28;20413;-52
2020/12/09 07:17:26;;;;;;;40.38;20.63;;;4.70;99.90;;;;;;5070640;28;20402;-51
2020/12/09 07:19:52;;;;;;;41.53;20.65;;;4.70;99.90;;;;;;5073412;28;20398;-51
2020/12/09 07:22:19;;;;;;;42.50;21.38;;;4.60;99.90;;;;;;5072620;28;20403;-50
2020/12/09 07:24:45;;;;;;;41.87;21.47;;;4.60;99.90;;;;;;5073119;28;20381;-50
2020/12/09 07:27:12;;;;;;;44.35;21.48;;;4.70;99.90;;;;;;5071945;28;20893;-51
2020/12/09 07:29:45;;;;;;;38.63;20.40;;;4.60;99.90;;;;;;5072891;28;20843;-50
2020/12/09 07:32:15;;;;;;;39.85;21.27;;;4.70;99.90;;;;;;5070943;28;20409;-51
2020/12/09 07:34:55;;;;;;;42.90;21.40;;;4.70;99.90;;;;;;5069696;28;20401;-51
2020/12/09 07:37:23;;;;;;;41.42;21.35;;;4.70;99.90;;;;;;5070649;28;20739;-54
2020/12/09 07:39:52;;;;;;;42.80;21.35;;;4.60;99.90;;;;;;5072131;28;20393;-52
2020/12/09 07:42:22;;;;;;;40.47;22.00;;;4.70;99.90;;;;;;5072253;28;20732;-50
2020/12/09 07:44:52;;;;;;;41.95;21.50;;;4.70;99.90;;;;;;5071019;28;20386;-51
2020/12/09 07:47:22;;;;;;;39.00;20.90;;;4.70;99.90;;;;;;5070904;28;20382;-50
2020/12/09 07:49:56;;;;;;;44.15;22.08;;;4.70;99.90;;;;;;5072003;28;20417;-51
2020/12/09 07:52:23;;;;;;;40.83;21.58;;;4.70;99.90;;;;;;5070115;28;20387;-52
2020/12/09 07:54:52;;;;;;;40.78;22.00;;;4.70;99.90;;;;;;5070220;28;20390;-51
2020/12/09 07:57:18;;;;;;;41.85;21.75;;;4.70;99.90;;;;;;5070091;28;20914;-51
2020/12/09 07:59:44;;;;;;;40.38;21.38;;;4.70;99.90;;;;;;5069072;28;20719;-51
2020/12/09 08:02:24;;;;;;;41.23;21.03;;;4.70;99.90;;;;;;5051928;28;20891;-50
2020/12/09 08:05:15;;;;;;;44.45;21.60;;;4.70;99.90;;;;;;5070712;28;20402;-51
2020/12/09 08:07:58;;;;;;;42.90;21.42;;;4.70;99.90;;;;;;5068234;28;20390;-51
2020/12/09 08:10:25;;;;;;;45.40;21.80;;;4.70;99.90;;;;;;5070385;28;20386;-51
2020/12/09 08:13:07;;;;;;;42.83;21.45;;;4.80;99.90;;;;;;5071968;28;20413;-51
2020/12/09 08:15:34;;;;;;;41.33;20.67;;;4.80;99.90;;;;;;5070970;28;20839;-51
2020/12/09 08:18:01;;;;;;;40.08;20.55;;;4.80;99.90;;;;;;5069657;28;20401;-54
2020/12/09 08:20:27;;;;;;;42.95;21.00;;;4.80;99.90;;;;;;5065469;28;20752;-53
2020/12/09 08:23:00;;;;;;;43.30;20.58;;;4.80;99.90;;;;;;5070884;28;20374;-51
2020/12/09 08:25:28;;;;;;;39.20;20.80;;;4.80;99.90;;;;;;5069649;28;20381;-51
2020/12/09 08:27:56;;;;;;;38.03;20.05;;;4.80;99.90;;;;;;5070545;28;20414;-50
2020/12/09 08:30:25;;;;;;;40.08;20.67;;;4.80;99.90;;;;;;5069988;28;20394;-52
2020/12/09 08:32:58;;;;;;;38.13;19.90;;;4.90;99.90;;;;;;5070287;28;20402;-50
2020/12/09 08:35:25;;;;;;;36.28;19.50;;;4.90;99.90;;;;;;5070445;28;20390;-50
2020/12/09 08:37:51;;;;;;;40.90;20.95;;;4.90;99.90;;;;;;5071456;28;20406;-50
2020/12/09 08:40:17;;;;;;;40.13;21.02;;;4.90;99.90;;;;;;5070470;28;20382;-52
2020/12/09 08:42:56;;;;;;;40.65;20.00;;;4.90;99.90;;;;;;5071457;28;20886;-50
2020/12/09 08:45:22;;;;;;;41.30;19.83;;;4.90;99.90;;;;;;5070610;28;21199;-51
2020/12/09 08:47:48;;;;;;;41.22;20.85;;;4.90;99.90;;;;;;5070265;28;20406;-50
2020/12/09 08:50:15;;;;;;;38.42;20.40;;;4.90;99.90;;;;;;5062301;28;20394;-50
2020/12/09 08:52:42;;;;;;;38.47;20.42;;;4.90;99.90;;;;;;5071086;28;20455;-50
2020/12/09 08:55:08;;;;;;;39.07;18.90;;;4.90;99.90;;;;;;5069448;28;20398;-50
2020/12/09 08:57:34;;;;;;;39.45;20.20;;;5.00;99.90;;;;;;5071319;28;20409;-51
2020/12/09 09:00:00;;;;;;;35.97;18.73;;;4.90;99.90;;;;;;5071056;28;20866;-51
2020/12/09 09:02:26;;;;;;;41.08;19.95;;;4.90;99.90;;;;;;5068893;28;20406;-51
2020/12/09 09:04:53;;;;;;;36.92;19.80;;;4.90;99.90;;;;;;5070226;28;20878;-51
2020/12/09 09:07:19;;;;;;;36.97;19.63;;;4.90;99.90;;;;;;5070572;28;20463;-51
2020/12/09 09:09:45;;;;;;;36.65;19.20;;;4.90;99.90;;;;;;5070689;28;20406;-50
2020/12/09 09:12:11;;;;;;;36.25;18.63;;;4.90;99.90;;;;;;5068769;28;20422;-51
2020/12/09 09:14:37;;;;;;;39.13;19.52;;;4.90;99.90;;;;;;5070715;28;20394;-51
2020/12/09 09:17:03;;;;;;;32.97;18.30;;;4.90;99.90;;;;;;5070723;28;20881;-52
2020/12/09 09:19:30;;;;;;;36.50;18.33;;;4.90;99.90;;;;;;5071175;28;20402;-51
2020/12/09 09:21:56;;;;;;;37.92;18.63;;;4.90;99.90;;;;;;5069529;28;20803;-50
2020/12/09 09:24:22;;;;;;;36.72;19.25;;;4.90;99.90;;;;;;5070274;28;20390;-51
2020/12/09 09:26:49;;;;;;;36.27;20.43;;;4.90;99.90;;;;;;5070625;28;20389;-50
2020/12/09 09:29:15;;;;;;;39.70;19.70;;;4.90;99.90;;;;;;5069885;28;20884;-51
2020/12/09 09:31:41;;;;;;;38.35;19.38;;;4.90;99.90;;;;;;5069889;28;20409;-54
2020/12/09 09:34:07;;;;;;;34.85;18.33;;;4.90;99.90;;;;;;5068766;28;20425;-52
2020/12/09 09:36:33;;;;;;;32.88;17.42;;;5.00;99.90;;;;;;5068173;28;20417;-52
2020/12/09 09:39:00;;;;;;;33.80;17.15;;;5.00;99.90;;;;;;5069842;28;20874;-50
2020/12/09 09:41:26;;;;;;;32.60;17.33;;;5.00;99.90;;;;;;5067658;28;20736;-54
2020/12/09 09:43:52;;;;;;;36.53;18.55;;;5.00;99.90;;;;;;5065316;28;20781;-54
2020/12/09 09:46:22;;;;;;;33.70;17.80;;;5.00;99.90;;;;;;5069241;28;20382;-51
2020/12/09 09:48:49;;;;;;;32.78;16.63;;;5.00;99.90;;;;;;5065955;28;20464;-50
2020/12/09 09:51:15;;;;;;;34.80;17.75;;;5.00;99.90;;;;;;5064472;28;20393;-54
2020/12/09 09:53:41;;;;;;;32.20;17.48;;;5.00;99.90;;;;;;5055991;28;20398;-51
2020/12/09 09:56:07;;;;;;;31.77;17.00;;;5.00;99.90;;;;;;5068450;28;20394;-62
2020/12/09 09:58:34;;;;;;;33.03;17.85;;;5.00;99.90;;;;;;5062528;28;20387;-53
2020/12/09 10:01:00;;;;;;;34.80;17.40;;;5.00;99.90;;;;;;5066581;28;20388;-50
2020/12/09 10:03:26;;;;;;;29.55;16.38;;;5.10;99.90;;;;;;5068513;28;20405;-50
2020/12/09 10:05:53;;;;;;;32.53;17.73;;;5.00;99.90;;;;;;5070261;28;20393;-51
2020/12/09 10:08:19;;;;;;;30.35;16.33;;;5.00;99.90;;;;;;5069140;28;20406;-51
2020/12/09 10:10:45;;;;;;;30.13;16.47;;;5.00;99.90;;;;;;5062318;28;20397;-51
2020/12/09 10:13:12;;;;;;;30.13;17.00;;;5.00;99.90;;;;;;5068335;28;20937;-50
2020/12/09 10:15:39;;;;;;;32.13;16.85;;;5.00;99.90;;;;;;5068646;28;20417;-53
2020/12/09 10:18:05;;;;;;;33.90;16.80;;;5.00;99.90;;;;;;5067031;28;20408;-51
2020/12/09 10:20:31;;;;;;;27.90;15.80;;;5.10;99.90;;;;;;5066692;28;20406;-50
2020/12/09 10:22:57;;;;;;;27.35;15.02;;;5.10;99.90;;;;;;5061001;28;20904;-50
2020/12/09 10:25:24;;;;;;;27.83;15.88;;;5.00;99.90;;;;;;5077314;28;20402;-49
2020/12/09 10:27:51;;;;;;;31.52;15.90;;;5.00;99.90;;;;;;5066293;28;20902;-53
2020/12/09 10:30:17;;;;;;;26.75;15.52;;;5.00;99.90;;;;;;5064887;28;20401;-50
2020/12/09 10:32:47;;;;;;;28.35;16.05;;;5.00;99.90;;;;;;5063024;28;20382;-50
2020/12/09 10:35:13;;;;;;;29.50;15.83;;;5.00;99.90;;;;;;5065549;28;20525;-51
2020/12/09 10:37:39;;;;;;;28.00;16.03;;;5.00;99.90;;;;;;5061086;28;20418;-54
2020/12/09 10:40:06;;;;;;;29.48;16.58;;;5.00;99.90;;;;;;5058862;28;20477;-51
2020/12/09 10:42:32;;;;;;;28.67;15.85;;;5.00;99.90;;;;;;5067249;28;20389;-51
2020/12/09 10:44:58;;;;;;;26.80;15.73;;;5.10;99.90;;;;;;5063892;28;20883;-50
2020/12/09 10:47:24;;;;;;;28.98;16.13;;;5.10;99.90;;;;;;5066153;28;20401;-50
2020/12/09 10:49:51;;;;;;;28.05;16.15;;;5.10;99.90;;;;;;5063579;28;20414;-54
2020/12/09 10:52:17;;;;;;;29.75;16.00;;;5.10;99.90;;;;;;5060791;28;20412;-51
2020/12/09 10:54:43;;;;;;;27.55;16.50;;;5.10;99.90;;;;;;5060272;28;20400;-51
2020/12/09 10:57:09;;;;;;;29.50;15.88;;;5.10;99.90;;;;;;5064552;28;20382;-52
2020/12/09 10:59:36;;;;;;;28.77;15.63;;;5.10;99.90;;;;;;5063492;28;20394;-50
2020/12/09 11:02:02;;;;;;;30.60;17.05;;;5.10;99.90;;;;;;5060644;28;20459;-51
2020/12/09 11:04:28;;;;;;;29.30;16.90;;;5.10;99.90;;;;;;5066232;28;20418;-53
2020/12/09 11:06:54;;;;;;;31.45;17.30;;;5.10;99.90;;;;;;5065721;28;20382;-53
2020/12/09 11:09:20;;;;;;;28.70;16.80;;;5.10;99.90;;;;;;5064651;28;20419;-51
2020/12/09 11:11:47;;;;;;;30.08;18.13;;;5.10;99.90;;;;;;5063283;28;20409;-53
2020/12/09 11:14:13;;;;;;;29.83;16.52;;;5.10;99.90;;;;;;5069571;28;20413;-52
2020/12/09 11:16:40;;;;;;;32.05;17.27;;;5.10;99.90;;;;;;5069242;28;20386;-52
2020/12/09 11:19:06;;;;;;;30.63;17.27;;;5.10;99.90;;;;;;5067709;28;20402;-50
2020/12/09 11:21:33;;;;;;;30.52;16.80;;;5.10;99.90;;;;;;5072931;28;20390;-51
2020/12/09 11:23:59;;;;;;;29.70;16.70;;;5.10;99.90;;;;;;5073100;28;20928;-50
2020/12/09 11:26:27;;;;;;;28.35;16.50;;;5.10;99.90;;;;;;5072959;28;20398;-51
2020/12/09 11:28:53;;;;;;;31.17;17.83;;;5.10;99.90;;;;;;5069432;28;20905;-54
2020/12/09 11:31:21;;;;;;;33.33;19.13;;;5.10;99.90;;;;;;5071407;28;20382;-52
2020/12/09 11:33:48;;;;;;;32.93;17.87;;;5.10;99.90;;;;;;5070688;28;20401;-51
2020/12/09 11:36:14;;;;;;;31.67;17.42;;;5.10;99.90;;;;;;5071831;28;20768;-51
2020/12/09 11:38:40;;;;;;;36.05;17.95;;;5.10;99.90;;;;;;5070577;28;20390;-52
2020/12/09 11:41:07;;;;;;;30.90;17.50;;;5.10;99.90;;;;;;5072256;28;20394;-52
2020/12/09 11:43:33;;;;;;;34.70;18.93;;;5.10;99.90;;;;;;5069845;28;20413;-51
2020/12/09 11:45:59;;;;;;;31.47;18.33;;;5.20;99.90;;;;;;5065550;28;20756;-53
2020/12/09 11:48:25;;;;;;;30.92;17.52;;;5.10;99.90;;;;;;5069507;28;20527;-51
2020/12/09 11:50:52;;;;;;;39.17;22.10;;;5.10;99.90;;;;;;5071038;28;20401;-51
2020/12/09 11:53:18;;;;;;;37.08;20.30;;;5.20;99.90;;;;;;5071882;28;20738;-53
2020/12/09 11:55:45;;;;;;;33.03;18.98;;;5.10;99.90;;;;;;5071570;28;20390;-51
2020/12/09 11:58:11;;;;;;;32.72;18.15;;;5.20;99.90;;;;;;5071779;28;20743;-51
2020/12/09 12:00:37;;;;;;;46.67;24.33;;;5.10;99.90;;;;;;5071217;28;20378;-52
2020/12/09 12:03:03;;;;;;;36.47;21.15;;;5.20;99.90;;;;;;5069805;28;20391;-51
2020/12/09 12:05:32;;;;;;;38.38;22.20;;;5.20;99.90;;;;;;5070272;28;20734;-54
2020/12/09 12:07:59;;;;;;;33.58;19.67;;;5.20;99.90;;;;;;5073227;28;20394;-52
2020/12/09 12:10:25;;;;;;;39.53;22.65;;;5.20;99.90;;;;;;5071105;28;20770;-51
2020/12/09 12:12:51;;;;;;;35.30;19.85;;;5.20;99.90;;;;;;5070568;28;20945;-51
2020/12/09 12:15:17;;;;;;;35.13;19.23;;;5.20;99.90;;;;;;5071157;28;20401;-59
2020/12/09 12:17:43;;;;;;;35.37;20.27;;;5.20;99.90;;;;;;5069558;28;20773;-55
2020/12/09 12:20:12;;;;;;;36.85;20.42;;;5.20;99.90;;;;;;5068627;28;20440;-55
2020/12/09 12:22:38;;;;;;;33.38;19.30;;;5.20;99.90;;;;;;5066717;28;20417;-51
2020/12/09 12:25:04;;;;;;;38.47;21.05;;;5.10;99.90;;;;;;5071441;28;20404;-52
2020/12/09 12:27:31;;;;;;;39.63;21.13;;;5.10;99.90;;;;;;5070887;28;20426;-62
2020/12/09 12:30:00;;;;;;;38.47;20.85;;;5.00;99.90;;;;;;5070240;28;20918;-51
2020/12/09 12:32:27;;;;;;;40.20;21.02;;;5.00;99.90;;;;;;5069497;28;20451;-51
2020/12/09 12:34:53;;;;;;;43.60;22.63;;;5.00;99.90;;;;;;5070604;28;20377;-50
2020/12/09 12:37:19;;;;;;;42.70;22.45;;;5.00;99.90;;;;;;5070629;28;20398;-52